createdAt,value
2017-12-04T00:02:33.896Z,76.40
2017-12-04T00:08:02.035Z,76.40
2017-12-04T00:13:30.953Z,76.50
2017-12-04T00:18:59.110Z,76.50
2017-12-04T00:24:28.236Z,76.60
2017-12-04T00:29:59.124Z,76.60
2017-12-04T00:35:28.023Z,76.60
2017-12-04T00:40:56.482Z,76.60
2017-12-04T00:46:25.410Z,76.30
2017-12-04T00:51:53.548Z,76.20
2017-12-04T00:57:22.440Z,76.00
2017-12-04T01:02:50.820Z,76.00
2017-12-04T01:08:18.958Z,75.80
2017-12-04T01:13:47.098Z,75.70
2017-12-04T01:19:15.243Z,75.60
2017-12-04T01:24:43.394Z,75.50
2017-12-04T01:30:11.535Z,75.30
2017-12-04T01:35:39.666Z,75.20
2017-12-04T01:41:08.116Z,75.00
2017-12-04T01:46:36.534Z,74.90
2017-12-04T01:52:07.369Z,74.90
2017-12-04T01:57:35.512Z,74.90
2017-12-04T02:03:04.423Z,75.50
2017-12-04T02:08:32.579Z,75.50
2017-12-04T02:14:00.744Z,75.70
2017-12-04T02:19:32.949Z,76.20
2017-12-04T02:25:01.358Z,76.10
2017-12-04T02:30:29.508Z,76.20
2017-12-04T02:35:58.457Z,76.00
2017-12-04T02:41:26.630Z,76.00
2017-12-04T02:46:54.789Z,75.80
2017-12-04T02:52:22.966Z,75.60
2017-12-04T02:57:51.101Z,75.50
2017-12-04T03:03:19.516Z,75.50
2017-12-04T03:08:47.648Z,75.70
2017-12-04T03:14:24.446Z,76.00
2017-12-04T03:19:52.617Z,76.40
2017-12-04T03:25:21.544Z,76.90
2017-12-04T03:30:50.450Z,77.10
2017-12-04T03:36:19.528Z,77.10
2017-12-04T03:41:48.471Z,77.20
2017-12-04T03:47:17.405Z,77.50
2017-12-04T03:52:46.300Z,77.60
2017-12-04T03:58:14.501Z,77.60
2017-12-04T04:03:42.668Z,77.80
2017-12-04T04:09:10.797Z,78.20
2017-12-04T04:14:39.705Z,78.40
2017-12-04T04:20:07.865Z,78.40
2017-12-04T04:25:37.936Z,78.70
2017-12-04T04:31:06.094Z,78.70
2017-12-04T04:36:34.238Z,78.70
2017-12-04T04:42:21.562Z,78.90
2017-12-04T04:47:50.021Z,78.80
2017-12-04T04:53:18.174Z,78.90
2017-12-04T04:58:46.319Z,79.00
2017-12-04T05:04:14.475Z,79.10
2017-12-04T05:09:46.024Z,79.20
2017-12-04T05:15:14.949Z,79.00
2017-12-04T05:20:43.855Z,79.60
2017-12-04T05:26:12.322Z,78.90
2017-12-04T05:31:47.013Z,78.90
2017-12-04T05:37:20.140Z,78.70
2017-12-04T05:42:49.050Z,78.50
2017-12-04T05:48:19.170Z,78.50
2017-12-04T05:53:47.321Z,78.50
2017-12-04T05:59:15.477Z,78.60
2017-12-04T06:04:43.627Z,78.60
2017-12-04T06:10:13.526Z,78.40
2017-12-04T06:15:41.691Z,78.40
2017-12-04T06:21:09.972Z,78.30
2017-12-04T06:26:40.883Z,78.50
2017-12-04T06:32:09.024Z,78.50
2017-12-04T06:37:38.915Z,78.60
2017-12-04T06:43:07.061Z,78.40
2017-12-04T06:48:35.220Z,78.50
2017-12-04T06:54:03.390Z,78.40
2017-12-04T06:59:31.531Z,78.40
2017-12-04T07:05:00.344Z,78.30
2017-12-04T07:10:28.521Z,78.20
2017-12-04T07:15:57.432Z,78.00
2017-12-04T07:21:25.880Z,77.90
2017-12-04T07:26:54.032Z,77.70
2017-12-04T07:32:22.172Z,77.50
2017-12-04T07:37:50.319Z,77.30
2017-12-04T07:43:19.200Z,77.00
2017-12-04T07:48:47.356Z,76.90
2017-12-04T07:54:20.028Z,76.70
2017-12-04T07:59:48.171Z,76.60
2017-12-04T08:05:16.324Z,77.10
2017-12-04T08:10:44.540Z,77.60
2017-12-04T08:16:13.416Z,78.00
2017-12-04T08:21:42.482Z,78.40
2017-12-04T08:27:10.712Z,78.40
2017-12-04T08:32:39.198Z,78.40
2017-12-04T08:38:07.342Z,78.70
2017-12-04T08:43:36.600Z,78.60
2017-12-04T08:49:04.734Z,78.70
2017-12-04T08:54:32.931Z,78.50
2017-12-04T09:00:07.684Z,78.20
2017-12-04T09:05:46.528Z,78.20
2017-12-04T09:11:14.674Z,78.10
2017-12-04T09:16:42.804Z,78.10
2017-12-04T09:22:11.724Z,77.50
2017-12-04T09:27:39.876Z,77.40
2017-12-04T09:33:08.010Z,77.20
2017-12-04T09:38:36.165Z,76.80
2017-12-04T09:44:04.313Z,76.80
2017-12-04T09:49:33.342Z,76.20
2017-12-04T09:55:03.489Z,76.20
2017-12-04T10:00:31.783Z,76.20
2017-12-04T10:05:59.935Z,76.00
2017-12-04T10:11:28.072Z,75.80
2017-12-04T10:17:01.228Z,75.70
2017-12-04T10:22:31.577Z,76.30
2017-12-04T10:27:59.768Z,76.30
2017-12-04T10:33:27.959Z,76.50
2017-12-04T10:38:56.384Z,76.80
2017-12-04T10:44:24.521Z,77.50
2017-12-04T10:49:52.650Z,77.60
2017-12-04T10:55:20.909Z,77.50
2017-12-04T11:00:49.828Z,77.10
2017-12-04T11:06:19.418Z,77.10
2017-12-04T11:11:49.003Z,76.50
2017-12-04T11:17:17.148Z,76.50
2017-12-04T11:22:45.361Z,76.40
2017-12-04T11:28:13.565Z,76.20
2017-12-04T11:33:41.758Z,76.10
2017-12-04T11:39:11.315Z,75.90
2017-12-04T11:44:40.131Z,75.80
2017-12-04T11:50:08.280Z,75.70
2017-12-04T11:56:04.596Z,75.60
2017-12-04T12:01:32.742Z,75.60
2017-12-04T12:07:00.900Z,75.50
2017-12-04T12:12:29.083Z,75.40
2017-12-04T12:17:57.292Z,75.30
2017-12-04T12:23:25.803Z,75.20
2017-12-04T12:28:54.003Z,75.00
2017-12-04T12:34:22.142Z,75.00
2017-12-04T12:39:50.973Z,74.90
2017-12-04T12:45:19.115Z,74.90
2017-12-04T12:50:48.029Z,74.90
2017-12-04T12:56:16.191Z,74.90
2017-12-04T13:01:44.763Z,74.90
2017-12-04T13:07:13.391Z,74.90
2017-12-04T13:12:42.237Z,75.00
2017-12-04T13:18:11.564Z,75.30
2017-12-04T13:23:39.711Z,75.30
2017-12-04T13:29:07.857Z,75.50
2017-12-04T13:34:53.925Z,75.70
2017-12-04T13:40:22.804Z,76.40
2017-12-04T13:45:51.364Z,76.40
2017-12-04T13:51:32.683Z,76.80
2017-12-04T13:57:01.694Z,77.30
2017-12-04T14:02:29.841Z,77.30
2017-12-04T14:07:57.977Z,77.60
2017-12-04T14:13:26.117Z,77.60
2017-12-04T14:18:55.110Z,78.10
2017-12-04T14:24:24.454Z,78.00
2017-12-04T14:29:52.595Z,78.10
2017-12-04T14:35:20.736Z,78.30
2017-12-04T14:40:48.866Z,78.40
2017-12-04T14:46:17.793Z,78.70
2017-12-04T14:51:46.704Z,78.80
2017-12-04T14:57:14.848Z,78.80
2017-12-04T15:02:42.985Z,78.90
2017-12-04T15:08:11.894Z,79.20
2017-12-04T15:13:40.038Z,79.20
2017-12-04T15:19:08.921Z,79.30
2017-12-04T15:24:37.068Z,79.30
2017-12-04T15:30:05.209Z,79.50
2017-12-04T15:35:34.110Z,79.60
2017-12-04T15:41:02.252Z,79.60
2017-12-04T15:46:30.454Z,79.60
2017-12-04T15:51:58.591Z,79.60
2017-12-04T15:57:26.908Z,79.70
2017-12-04T16:02:55.861Z,80.60
2017-12-04T16:08:24.826Z,80.20
2017-12-04T16:13:52.969Z,80.10
2017-12-04T16:19:21.119Z,80.10
2017-12-04T16:24:49.266Z,80.20
2017-12-04T16:30:18.225Z,80.30
2017-12-04T16:35:46.370Z,80.30
2017-12-04T16:41:14.521Z,80.30
2017-12-04T16:46:44.587Z,80.40
2017-12-04T16:52:12.768Z,80.50
2017-12-04T16:57:40.907Z,80.50
2017-12-04T17:03:09.031Z,80.60
2017-12-04T17:08:37.161Z,80.60
2017-12-04T17:14:05.322Z,80.50
2017-12-04T17:19:37.021Z,80.40
2017-12-04T17:25:05.165Z,80.30
2017-12-04T17:30:34.252Z,80.20
2017-12-04T17:36:04.330Z,80.10
2017-12-04T17:41:35.203Z,79.90
2017-12-04T17:47:06.823Z,79.90
2017-12-04T17:52:36.008Z,79.80
2017-12-04T17:58:04.178Z,79.80
2017-12-04T18:03:33.103Z,79.80
2017-12-04T18:09:02.040Z,79.80
2017-12-04T18:14:31.211Z,79.80
2017-12-04T18:19:59.664Z,80.50
2017-12-04T18:25:31.443Z,80.10
2017-12-04T18:31:05.204Z,80.10
2017-12-04T18:36:35.002Z,80.10
2017-12-04T18:42:03.144Z,80.20
2017-12-04T18:47:41.184Z,80.30
2017-12-04T18:53:09.452Z,80.30
2017-12-04T18:58:37.614Z,80.40
2017-12-04T19:04:25.667Z,80.60
2017-12-04T19:09:53.842Z,80.60
2017-12-04T19:15:27.441Z,80.70
2017-12-04T19:20:55.826Z,80.90
2017-12-04T19:26:26.757Z,81.10
2017-12-04T19:31:54.936Z,81.10
2017-12-04T19:37:25.132Z,81.10
2017-12-04T19:42:53.279Z,81.10
2017-12-04T19:48:22.397Z,81.20
2017-12-04T19:53:50.564Z,81.20
2017-12-04T19:59:18.823Z,81.20
2017-12-04T20:04:47.729Z,81.10
2017-12-04T20:10:17.841Z,81.10
2017-12-04T20:15:45.976Z,81.20
2017-12-04T20:21:18.152Z,81.20
2017-12-04T20:26:47.064Z,81.30
2017-12-04T20:32:15.207Z,81.20
2017-12-04T20:37:43.426Z,81.40
2017-12-04T20:43:12.466Z,81.60
2017-12-04T20:48:41.595Z,81.60
2017-12-04T20:54:10.527Z,81.70
2017-12-04T20:59:38.646Z,81.70
2017-12-04T21:05:06.778Z,81.90
2017-12-04T21:10:56.742Z,81.70
2017-12-04T21:16:57.765Z,81.60
2017-12-04T21:22:25.925Z,81.60
2017-12-04T21:27:59.882Z,81.50
2017-12-04T21:33:28.910Z,81.50
2017-12-04T21:39:02.772Z,81.60
2017-12-04T21:44:46.111Z,81.50
2017-12-04T21:50:16.209Z,81.50
2017-12-04T21:55:44.506Z,81.40
2017-12-04T22:01:12.679Z,81.40
2017-12-04T22:06:40.861Z,81.40
2017-12-04T22:12:13.508Z,81.40
2017-12-04T22:17:42.427Z,81.40
2017-12-04T22:23:10.613Z,81.30
2017-12-04T22:28:40.018Z,81.30
2017-12-04T22:34:08.209Z,81.30
2017-12-04T22:39:36.350Z,81.20
2017-12-04T22:45:05.307Z,81.30
2017-12-04T22:50:35.487Z,81.20
2017-12-04T22:56:03.635Z,81.20
2017-12-04T23:01:31.852Z,81.10
2017-12-04T23:06:59.985Z,81.10
2017-12-04T23:12:28.182Z,81.20
2017-12-04T23:17:56.328Z,81.10
2017-12-04T23:23:24.686Z,81.10
2017-12-04T23:28:56.419Z,81.00
2017-12-04T23:34:24.583Z,81.00
2017-12-04T23:39:53.831Z,80.90
2017-12-04T23:45:21.996Z,80.90
2017-12-04T23:50:50.151Z,80.90
2017-12-04T23:56:19.226Z,80.90
